Wells, Pennsylvania
Current Conditions -  °F | °C
As of 3:53 AM on Wednesday 28 Jan 2015 (Local Time) from KELM Reporting Station
Clear Clear  
Wind Chill: -12°   Ceiling: Unl
Heat Index:   Visibility: 10mi
Dew Point: -3°   Wind: 7mph
Humidity: 83%   Direction: 240°WSW
Pressure: 30.05"   Gusts: NA
Location:  41.9519°N, 76.7808°W
Report Text: KELM 280853Z AUTO 24006KT 10SM CLR M17/M19 A3005 RMK AO2 SLP198 T11721194 53010
Loading
Personal Weather Stations






























Interactive Weather Map New forecast layout! Learn more

10-Day Weather Forecast

Advertisements
Track Severe Weather on mobile